createdAt,value
2022-12-17T00:01:18.855Z,44.33
2022-12-17T00:04:04.309Z,40.78
2022-12-17T00:06:49.733Z,52.85
2022-12-17T00:09:35.087Z,48.95
2022-12-17T00:12:20.454Z,46.22
2022-12-17T00:15:05.937Z,47.88
2022-12-17T00:17:51.135Z,44.00
2022-12-17T00:20:37.235Z,50.10
2022-12-17T00:23:23.728Z,52.03
2022-12-17T00:26:13.675Z,48.65
2022-12-17T00:28:59.658Z,45.53
2022-12-17T00:31:48.315Z,48.55
2022-12-17T00:34:34.175Z,54.15
2022-12-17T00:37:20.181Z,47.08
2022-12-17T00:40:05.560Z,45.33
2022-12-17T00:42:50.906Z,46.33
2022-12-17T00:45:54.457Z,54.83
2022-12-17T00:48:43.743Z,54.25
2022-12-17T00:51:29.073Z,53.00
2022-12-17T00:54:24.976Z,52.30
2022-12-17T00:57:10.548Z,53.65
2022-12-17T00:59:56.446Z,48.55
2022-12-17T01:02:43.029Z,51.00
2022-12-17T01:05:29.399Z,49.60
2022-12-17T01:08:15.201Z,48.75
2022-12-17T01:11:00.319Z,46.65
2022-12-17T01:13:46.210Z,51.40
2022-12-17T01:16:37.968Z,50.35
2022-12-17T01:19:23.335Z,55.10
2022-12-17T01:22:08.816Z,50.10
2022-12-17T01:24:56.086Z,53.78
2022-12-17T01:27:41.458Z,51.45
2022-12-17T01:30:28.330Z,53.67
2022-12-17T01:33:23.369Z,57.20
2022-12-17T01:36:08.962Z,49.30
2022-12-17T01:38:54.160Z,45.42
2022-12-17T01:41:39.407Z,47.83
2022-12-17T01:44:59.224Z,49.67
2022-12-17T01:47:47.238Z,47.35
2022-12-17T01:50:35.574Z,47.75
2022-12-17T01:53:22.122Z,49.05
2022-12-17T01:56:07.551Z,52.22
2022-12-17T01:58:53.858Z,51.97
2022-12-17T02:01:40.492Z,49.65
2022-12-17T02:04:28.170Z,45.45
2022-12-17T02:07:38.601Z,55.05
2022-12-17T02:10:39.329Z,49.08
2022-12-17T02:13:35.702Z,46.25
2022-12-17T02:16:32.632Z,45.30
2022-12-17T02:19:34.496Z,44.38
2022-12-17T02:22:25.911Z,45.53
2022-12-17T02:25:22.515Z,48.08
2022-12-17T02:28:08.189Z,44.15
2022-12-17T02:30:53.814Z,48.28
2022-12-17T02:33:39.213Z,48.25
2022-12-17T02:36:25.537Z,51.88
2022-12-17T02:39:11.047Z,49.47
2022-12-17T02:42:02.380Z,50.13
2022-12-17T02:44:49.259Z,49.22
2022-12-17T02:47:35.145Z,47.55
2022-12-17T02:50:20.637Z,48.78
2022-12-17T02:53:07.240Z,48.78
2022-12-17T02:55:55.176Z,52.38
2022-12-17T02:58:40.832Z,48.17
2022-12-17T03:01:26.657Z,41.25
2022-12-17T03:04:13.234Z,47.90
2022-12-17T03:07:01.882Z,58.45
2022-12-17T03:09:47.213Z,50.20
2022-12-17T03:12:32.578Z,45.80
2022-12-17T03:15:17.851Z,42.35
2022-12-17T03:18:03.810Z,41.83
2022-12-17T03:20:49.572Z,49.65
2022-12-17T03:23:35.212Z,47.83
2022-12-17T03:26:21.957Z,54.88
2022-12-17T03:29:07.877Z,50.35
2022-12-17T03:31:53.219Z,50.47
2022-12-17T03:34:38.647Z,53.75
2022-12-17T03:37:24.494Z,53.05
2022-12-17T03:40:10.048Z,48.22
2022-12-17T03:42:55.483Z,46.67
2022-12-17T03:45:40.811Z,51.85
2022-12-17T03:48:31.653Z,56.30
2022-12-17T03:51:17.466Z,47.60
2022-12-17T03:54:04.010Z,50.47
2022-12-17T03:56:49.914Z,47.25
2022-12-17T03:59:35.870Z,49.30
2022-12-17T04:02:21.303Z,46.38
2022-12-17T04:05:07.187Z,41.35
2022-12-17T04:07:52.601Z,47.08
2022-12-17T04:10:37.758Z,48.38
2022-12-17T04:13:23.219Z,41.80
2022-12-17T04:16:08.543Z,49.30
2022-12-17T04:18:56.825Z,45.53
2022-12-17T04:21:42.330Z,42.88
2022-12-17T04:24:27.622Z,42.88
2022-12-17T04:27:13.435Z,48.00
2022-12-17T04:29:58.627Z,54.17
2022-12-17T04:32:43.918Z,48.35
2022-12-17T04:35:29.359Z,52.22
2022-12-17T04:38:15.396Z,48.55
2022-12-17T04:41:11.302Z,47.88
2022-12-17T04:44:01.267Z,52.25
2022-12-17T04:46:48.426Z,47.72
2022-12-17T04:49:33.877Z,48.00
2022-12-17T04:52:19.146Z,51.08
2022-12-17T04:55:04.437Z,51.95
2022-12-17T04:57:49.636Z,47.60
2022-12-17T05:00:39.666Z,49.88
2022-12-17T05:03:27.549Z,48.70
2022-12-17T05:06:13.053Z,46.65
2022-12-17T05:08:58.363Z,63.95
2022-12-17T05:11:43.807Z,47.55
2022-12-17T05:14:28.972Z,44.80
2022-12-17T05:17:14.992Z,43.25
2022-12-17T05:20:00.203Z,42.92
2022-12-17T05:22:45.403Z,44.83
2022-12-17T05:25:30.787Z,40.83
2022-12-17T05:28:16.070Z,48.35
2022-12-17T05:31:01.708Z,42.78
2022-12-17T05:33:47.108Z,47.33
2022-12-17T05:36:32.430Z,46.03
2022-12-17T05:39:17.870Z,48.47
2022-12-17T05:42:03.136Z,52.63
2022-12-17T05:44:48.563Z,45.88
2022-12-17T05:47:34.124Z,48.15
2022-12-17T05:50:19.592Z,48.60
2022-12-17T05:53:05.010Z,44.00
2022-12-17T05:55:50.280Z,45.35
2022-12-17T05:58:36.577Z,44.08
2022-12-17T06:01:23.506Z,46.70
2022-12-17T06:04:10.113Z,45.65
2022-12-17T06:06:55.596Z,42.10
2022-12-17T06:09:40.921Z,46.20
2022-12-17T06:12:26.308Z,48.10
2022-12-17T06:15:11.576Z,45.35
2022-12-17T06:17:57.599Z,44.13
2022-12-17T06:20:43.244Z,45.00
2022-12-17T06:23:29.437Z,42.55
2022-12-17T06:26:15.819Z,39.05
2022-12-17T06:29:02.293Z,43.00
2022-12-17T06:31:47.587Z,42.05
2022-12-17T06:34:33.070Z,45.45
2022-12-17T06:37:18.519Z,50.25
2022-12-17T06:40:06.365Z,46.63
2022-12-17T06:42:51.887Z,47.47
2022-12-17T06:45:38.045Z,44.40
2022-12-17T06:48:25.620Z,46.60
2022-12-17T06:51:14.786Z,40.78
2022-12-17T06:54:01.242Z,44.58
2022-12-17T06:56:46.815Z,52.50
2022-12-17T06:59:32.178Z,40.65
2022-12-17T07:02:17.547Z,46.72
2022-12-17T07:05:02.922Z,40.97
2022-12-17T07:07:48.292Z,40.25
2022-12-17T07:10:33.552Z,47.42
2022-12-17T07:13:26.049Z,44.92
2022-12-17T07:16:12.012Z,38.97
2022-12-17T07:18:58.753Z,41.78
2022-12-17T07:21:56.268Z,43.25
2022-12-17T07:24:42.049Z,42.72
2022-12-17T07:27:28.567Z,50.47
2022-12-17T07:30:39.751Z,46.85
2022-12-17T07:33:26.226Z,44.28
2022-12-17T07:36:12.855Z,48.03
2022-12-17T07:38:58.553Z,52.80
2022-12-17T07:41:44.542Z,48.97
2022-12-17T07:44:30.980Z,37.45
2022-12-17T07:47:16.604Z,42.38
2022-12-17T07:50:03.014Z,45.20
2022-12-17T07:52:50.210Z,50.25
2022-12-17T07:55:35.745Z,49.80
2022-12-17T07:58:23.603Z,44.00
2022-12-17T08:01:09.131Z,45.22
2022-12-17T08:04:11.445Z,47.33
2022-12-17T08:07:02.841Z,54.22
2022-12-17T08:09:49.755Z,53.78
2022-12-17T08:12:34.913Z,51.65
2022-12-17T08:15:20.429Z,55.40
2022-12-17T08:18:06.186Z,64.28
2022-12-17T08:20:51.658Z,48.97
2022-12-17T08:23:37.464Z,55.28
2022-12-17T08:26:23.372Z,49.50
2022-12-17T08:29:09.655Z,51.55
2022-12-17T08:31:55.656Z,53.20
2022-12-17T08:34:50.150Z,61.45
2022-12-17T08:37:53.241Z,50.92
2022-12-17T08:40:38.817Z,52.75
2022-12-17T08:43:25.591Z,54.35
2022-12-17T08:46:12.563Z,48.17
2022-12-17T08:49:02.290Z,54.78
2022-12-17T08:51:49.658Z,47.03
2022-12-17T08:54:35.296Z,60.10
2022-12-17T08:57:31.369Z,52.75
2022-12-17T09:00:18.597Z,47.25
2022-12-17T09:03:04.201Z,54.90
2022-12-17T09:05:50.532Z,49.33
2022-12-17T09:08:35.925Z,58.67
2022-12-17T09:11:28.917Z,46.53
2022-12-17T09:14:14.243Z,48.28
2022-12-17T09:16:59.787Z,46.67
2022-12-17T09:19:46.389Z,50.25
2022-12-17T09:22:32.632Z,48.08
2022-12-17T09:25:18.132Z,54.58
2022-12-17T09:28:03.689Z,56.20
2022-12-17T09:30:49.419Z,61.60
2022-12-17T09:33:35.628Z,50.15
2022-12-17T09:36:25.377Z,49.58
2022-12-17T09:39:10.923Z,44.65
2022-12-17T09:42:19.618Z,51.17
2022-12-17T09:45:44.474Z,48.08
2022-12-17T09:48:40.779Z,42.80
2022-12-17T09:51:40.226Z,53.75
2022-12-17T09:54:31.005Z,47.88
2022-12-17T09:57:16.818Z,47.13
2022-12-17T10:00:02.392Z,45.72
2022-12-17T10:02:57.985Z,48.25
2022-12-17T10:05:46.399Z,45.75
2022-12-17T10:08:33.897Z,49.83
2022-12-17T10:11:37.390Z,49.65
2022-12-17T10:14:34.224Z,44.75
2022-12-17T10:17:19.499Z,49.25
2022-12-17T10:20:08.868Z,43.03
2022-12-17T10:23:07.557Z,45.08
2022-12-17T10:25:55.807Z,42.88
2022-12-17T10:28:43.320Z,46.33
2022-12-17T10:31:37.979Z,42.90
2022-12-17T10:34:30.928Z,46.42
2022-12-17T10:37:16.432Z,45.15
2022-12-17T10:40:01.766Z,44.05
2022-12-17T10:42:56.236Z,47.45
2022-12-17T10:45:46.008Z,40.42
2022-12-17T10:48:40.611Z,44.03
2022-12-17T10:51:55.374Z,45.30
2022-12-17T10:55:04.301Z,46.05
2022-12-17T11:01:12.260Z,51.13
2022-12-17T11:04:08.259Z,44.83
2022-12-17T11:07:00.358Z,49.08
2022-12-17T11:09:48.694Z,44.50
2022-12-17T11:12:35.742Z,50.38
2022-12-17T11:15:45.030Z,50.42
2022-12-17T11:18:42.767Z,51.05
2022-12-17T11:21:32.363Z,51.83
2022-12-17T11:24:22.486Z,49.05
2022-12-17T11:27:11.042Z,44.90
2022-12-17T11:29:56.340Z,45.42
2022-12-17T11:33:10.531Z,49.63
2022-12-17T11:36:08.015Z,50.10
2022-12-17T11:38:58.597Z,46.90
2022-12-17T11:42:09.511Z,50.75
2022-12-17T11:45:13.971Z,48.85
2022-12-17T11:48:13.711Z,49.72
2022-12-17T11:51:23.975Z,47.80
2022-12-17T11:54:20.098Z,48.20
2022-12-17T11:57:18.775Z,49.83
2022-12-17T12:00:27.251Z,44.40
2022-12-17T12:03:17.955Z,46.85
2022-12-17T12:06:11.281Z,43.72
2022-12-17T12:09:23.571Z,46.38
2022-12-17T12:12:21.659Z,40.97
2022-12-17T12:15:16.532Z,45.92
2022-12-17T12:18:31.995Z,40.78
2022-12-17T12:22:04.810Z,42.25
2022-12-17T12:25:05.806Z,44.05
2022-12-17T12:28:14.870Z,44.08
2022-12-17T12:31:30.295Z,47.53
2022-12-17T12:34:22.049Z,49.88
2022-12-17T12:37:07.911Z,45.03
2022-12-17T12:39:57.596Z,46.70
2022-12-17T12:42:50.994Z,41.90
2022-12-17T12:45:52.053Z,39.03
2022-12-17T12:48:38.558Z,47.80
2022-12-17T12:51:45.181Z,41.88
2022-12-17T12:54:51.965Z,41.88
2022-12-17T12:57:53.619Z,44.58
2022-12-17T13:00:59.123Z,40.28
2022-12-17T13:04:06.535Z,41.35
2022-12-17T13:06:49.732Z,41.42
2022-12-17T13:09:20.883Z,39.15
2022-12-17T13:11:48.704Z,38.00
2022-12-17T13:14:51.087Z,38.92
2022-12-17T13:17:30.263Z,37.78
2022-12-17T13:19:57.052Z,37.58
2022-12-17T13:22:24.604Z,39.47
2022-12-17T13:24:54.044Z,42.67
2022-12-17T13:27:31.088Z,42.38
2022-12-17T13:30:00.041Z,41.35
2022-12-17T13:32:34.291Z,43.75
2022-12-17T13:35:25.945Z,45.63
2022-12-17T13:38:00.435Z,41.85
2022-12-17T13:40:48.648Z,41.95
2022-12-17T13:43:21.403Z,46.28
2022-12-17T13:45:48.697Z,46.38
2022-12-17T13:48:24.076Z,47.35
2022-12-17T13:50:59.719Z,114.00
2022-12-17T13:53:27.490Z,45.13
2022-12-17T13:55:58.306Z,43.60
2022-12-17T13:58:31.714Z,44.72
2022-12-17T14:01:12.646Z,44.80
2022-12-17T14:06:29.779Z,45.75
2022-12-17T14:08:57.527Z,47.25
2022-12-17T14:11:43.178Z,48.00
2022-12-17T14:14:31.841Z,49.08
2022-12-17T14:16:59.177Z,47.05
2022-12-17T14:19:27.102Z,50.47
2022-12-17T14:21:54.704Z,51.58
2022-12-17T14:24:27.341Z,46.38
2022-12-17T14:26:59.349Z,51.53
2022-12-17T14:29:30.958Z,52.33
2022-12-17T14:32:03.065Z,53.72
2022-12-17T14:34:41.084Z,47.38
2022-12-17T14:37:17.686Z,47.85
2022-12-17T14:39:46.142Z,55.80
2022-12-17T14:42:32.859Z,52.58
2022-12-17T14:45:02.372Z,60.42
2022-12-17T14:47:33.950Z,52.33
2022-12-17T14:50:33.668Z,52.03
2022-12-17T14:53:02.865Z,49.92
2022-12-17T14:55:55.479Z,50.45
2022-12-17T14:58:24.450Z,60.42
2022-12-17T15:00:54.307Z,55.22
2022-12-17T15:03:29.670Z,56.65
2022-12-17T15:06:08.220Z,55.63
2022-12-17T15:08:43.190Z,54.15
2022-12-17T15:11:14.596Z,50.03
2022-12-17T15:13:42.444Z,57.15
2022-12-17T15:16:09.323Z,48.58
2022-12-17T15:18:36.632Z,57.78
2022-12-17T15:21:05.100Z,53.63
2022-12-17T15:23:32.077Z,51.67
2022-12-17T15:25:59.089Z,53.53
2022-12-17T15:28:31.196Z,52.08
2022-12-17T15:30:58.097Z,55.03
2022-12-17T15:33:24.851Z,55.05
2022-12-17T15:35:52.524Z,56.90
2022-12-17T15:38:19.398Z,56.72
2022-12-17T15:40:46.456Z,54.50
2022-12-17T15:43:16.186Z,55.78
2022-12-17T15:45:50.561Z,57.42
2022-12-17T15:48:20.122Z,59.30
2022-12-17T15:50:47.665Z,61.33
2022-12-17T15:53:14.996Z,55.25
2022-12-17T15:55:42.038Z,57.42
2022-12-17T15:58:11.427Z,55.08
2022-12-17T16:00:38.465Z,56.53
2022-12-17T16:03:05.438Z,51.05
2022-12-17T16:05:32.512Z,50.65
2022-12-17T16:08:02.395Z,53.78
2022-12-17T16:10:29.912Z,52.22
2022-12-17T16:12:57.578Z,52.83
2022-12-17T16:15:24.737Z,53.80
2022-12-17T16:17:52.340Z,51.33
2022-12-17T16:20:19.899Z,49.58
2022-12-17T16:22:46.636Z,51.17
2022-12-17T16:25:13.760Z,55.88
2022-12-17T16:27:43.318Z,49.03
2022-12-17T16:30:11.434Z,47.60
2022-12-17T16:32:38.749Z,43.35
2022-12-17T16:35:08.983Z,50.75
2022-12-17T16:37:36.008Z,45.33
2022-12-17T16:40:13.241Z,43.08
2022-12-17T16:42:40.231Z,45.30
2022-12-17T16:45:07.809Z,46.00
2022-12-17T16:47:36.659Z,45.80
2022-12-17T16:50:04.272Z,50.30
2022-12-17T16:52:37.237Z,48.40
2022-12-17T16:55:04.979Z,47.33
2022-12-17T16:57:32.204Z,51.38
2022-12-17T17:00:03.577Z,44.08
2022-12-17T17:02:33.204Z,51.22
2022-12-17T17:05:00.153Z,47.72
2022-12-17T17:07:26.922Z,49.42
2022-12-17T17:09:53.626Z,50.60
2022-12-17T17:12:20.621Z,48.60
2022-12-17T17:14:47.345Z,46.08
2022-12-17T17:17:15.453Z,40.38
2022-12-17T17:19:45.075Z,50.63
2022-12-17T17:22:12.932Z,41.65
2022-12-17T17:24:39.734Z,44.65
2022-12-17T17:27:06.579Z,38.97
2022-12-17T17:29:33.531Z,40.00
2022-12-17T17:32:15.588Z,40.97
2022-12-17T17:34:42.506Z,45.60
2022-12-17T17:37:09.471Z,39.85
2022-12-17T17:39:36.420Z,49.47
2022-12-17T17:42:03.304Z,45.90
2022-12-17T17:44:29.989Z,45.65
2022-12-17T17:46:56.935Z,48.67
2022-12-17T17:49:24.461Z,47.30
2022-12-17T17:54:39.652Z,42.30
2022-12-17T17:57:06.820Z,46.63
2022-12-17T17:59:34.394Z,49.25
2022-12-17T18:02:26.909Z,40.95
2022-12-17T18:04:54.958Z,43.08
2022-12-17T18:07:26.409Z,47.65
2022-12-17T18:09:54.879Z,41.03
2022-12-17T18:12:42.126Z,39.15
2022-12-17T18:15:14.800Z,40.15
2022-12-17T18:17:44.364Z,41.78
2022-12-17T18:20:13.552Z,37.10
2022-12-17T18:22:40.437Z,39.63
2022-12-17T18:25:07.550Z,38.22
2022-12-17T18:27:34.436Z,36.97
2022-12-17T18:30:01.144Z,40.22
2022-12-17T18:32:27.976Z,44.97
2022-12-17T18:34:54.999Z,35.90
2022-12-17T18:37:25.336Z,38.97
2022-12-17T18:39:52.154Z,38.53
2022-12-17T18:42:37.543Z,37.20
2022-12-17T18:45:04.903Z,38.40
2022-12-17T18:47:31.620Z,36.28
2022-12-17T18:49:58.607Z,32.95
2022-12-17T18:52:25.759Z,37.92
2022-12-17T18:54:52.766Z,34.42
2022-12-17T18:57:20.352Z,36.72
2022-12-17T18:59:47.233Z,37.53
2022-12-17T19:02:15.129Z,37.53
2022-12-17T19:04:42.132Z,34.80
2022-12-17T19:07:11.473Z,35.45
2022-12-17T19:09:40.265Z,39.67
2022-12-17T19:12:08.717Z,31.65
2022-12-17T19:14:38.595Z,34.65
2022-12-17T19:17:06.072Z,36.30
2022-12-17T19:19:33.339Z,32.50
2022-12-17T19:22:00.452Z,35.78
2022-12-17T19:24:30.641Z,32.75
2022-12-17T19:27:00.281Z,35.13
2022-12-17T19:29:27.373Z,32.47
2022-12-17T19:31:54.260Z,33.10
2022-12-17T19:34:21.092Z,32.22
2022-12-17T19:36:48.150Z,36.03
2022-12-17T19:39:18.151Z,35.47
2022-12-17T19:41:45.545Z,38.17
2022-12-17T19:44:14.894Z,31.02
2022-12-17T19:46:42.148Z,32.13
2022-12-17T19:49:12.315Z,33.45
2022-12-17T19:51:41.567Z,33.00
2022-12-17T19:54:09.539Z,36.92
2022-12-17T19:56:36.839Z,38.38
2022-12-17T19:59:09.454Z,40.30
2022-12-17T20:01:39.998Z,41.05
2022-12-17T20:04:12.016Z,38.50
2022-12-17T20:06:39.025Z,39.38
2022-12-17T20:09:07.176Z,42.08
2022-12-17T20:11:39.000Z,45.22
2022-12-17T20:14:13.319Z,43.90
2022-12-17T20:16:44.726Z,39.80
2022-12-17T20:19:14.552Z,40.70
2022-12-17T20:21:41.607Z,42.50
2022-12-17T20:24:08.626Z,36.85
2022-12-17T20:26:36.910Z,47.10
2022-12-17T20:29:09.090Z,42.30
2022-12-17T20:31:38.303Z,41.28
2022-12-17T20:34:07.054Z,36.60
2022-12-17T20:36:36.710Z,34.97
2022-12-17T20:39:03.708Z,35.53
2022-12-17T20:41:31.349Z,41.15
2022-12-17T20:43:58.565Z,37.85
2022-12-17T20:46:26.063Z,34.05
2022-12-17T20:48:52.900Z,35.60
2022-12-17T20:51:26.584Z,42.72
2022-12-17T20:53:54.698Z,39.22
2022-12-17T20:56:28.692Z,37.78
2022-12-17T20:58:59.042Z,41.20
2022-12-17T21:01:28.572Z,40.30
2022-12-17T21:03:57.023Z,38.92
2022-12-17T21:06:27.771Z,34.45
2022-12-17T21:08:55.530Z,34.80
2022-12-17T21:11:24.646Z,39.65
2022-12-17T21:13:52.200Z,38.22
2022-12-17T21:16:21.701Z,33.63
2022-12-17T21:18:48.867Z,36.95
2022-12-17T21:21:20.852Z,33.53
2022-12-17T21:23:51.889Z,39.83
2022-12-17T21:26:22.177Z,38.30
2022-12-17T21:28:54.537Z,33.53
2022-12-17T21:31:27.503Z,37.10
2022-12-17T21:33:57.890Z,35.20
2022-12-17T21:36:26.399Z,35.17
2022-12-17T21:38:54.911Z,32.15
2022-12-17T21:41:33.509Z,35.65
2022-12-17T21:44:03.050Z,35.58
2022-12-17T21:46:38.351Z,32.20
2022-12-17T21:49:05.506Z,33.70
2022-12-17T21:51:36.181Z,33.38
2022-12-17T21:54:08.189Z,36.78
2022-12-17T21:56:38.282Z,37.50
2022-12-17T21:59:05.134Z,35.38
2022-12-17T22:01:41.785Z,34.25
2022-12-17T22:04:15.153Z,40.90
2022-12-17T22:06:51.140Z,34.97
2022-12-17T22:10:09.306Z,42.60
2022-12-17T22:12:36.658Z,31.65
2022-12-17T22:15:06.484Z,32.55
2022-12-17T22:17:33.783Z,38.33
2022-12-17T22:20:00.576Z,30.55
2022-12-17T22:22:27.518Z,32.83
2022-12-17T22:24:54.574Z,30.98
2022-12-17T22:27:21.553Z,37.30
2022-12-17T22:30:06.936Z,35.05
2022-12-17T22:32:52.305Z,35.55
2022-12-17T22:36:36.815Z,37.05
2022-12-17T22:42:05.746Z,35.13
2022-12-17T22:44:32.403Z,34.60
2022-12-17T22:44:43.913Z,35.60
2022-12-17T22:46:29.716Z,32.95
2022-12-17T22:48:57.445Z,38.25
2022-12-17T22:51:37.527Z,35.53
2022-12-17T22:54:06.625Z,36.10
2022-12-17T22:56:49.134Z,33.03
2022-12-17T22:59:21.824Z,34.55
2022-12-17T23:01:48.919Z,33.47
2022-12-17T23:04:16.579Z,32.00
2022-12-17T23:06:46.785Z,31.95
2022-12-17T23:09:19.453Z,31.50
2022-12-17T23:11:48.198Z,29.15
2022-12-17T23:14:15.288Z,32.90
2022-12-17T23:16:44.211Z,35.88
2022-12-17T23:19:11.369Z,37.15
2022-12-17T23:21:38.629Z,29.38
2022-12-17T23:24:06.159Z,33.40
2022-12-17T23:26:35.955Z,32.05
2022-12-17T23:29:08.287Z,31.67
2022-12-17T23:31:38.081Z,33.65
2022-12-17T23:34:05.005Z,32.03
2022-12-17T23:36:32.029Z,31.65
2022-12-17T23:38:58.971Z,36.50
2022-12-17T23:41:31.007Z,35.65
2022-12-17T23:43:58.673Z,31.83
2022-12-17T23:46:27.273Z,31.42
2022-12-17T23:48:54.583Z,30.63
2022-12-17T23:51:22.696Z,38.53
2022-12-17T23:53:49.560Z,36.63
2022-12-17T23:56:19.245Z,33.35
2022-12-17T23:58:46.688Z,36.47
